Time;durP1;ratioP1;P1;durP2;ratioP2;P2;SDS_P1;SDS_P2;PMS_P1;PMS_P2;Temp;Humidity;BMP_temperature;BMP_pressure;BME280_temperature;BME280_humidity;BME280_pressure;Samples;Min_cycle;Max_cycle;Signal;HPM_P1;HPM_P2
2022/09/13 00:00:43;;;;;;;14.82;12.63;;;17.70;99.90;;;;;;4953818;28;20035;-82
2022/09/13 00:03:11;;;;;;;14.63;13.23;;;17.90;99.90;;;;;;4974317;28;20133;-82
2022/09/13 00:05:37;;;;;;;17.02;13.50;;;17.70;99.90;;;;;;4956829;28;20635;-82
2022/09/13 00:08:04;;;;;;;16.15;14.45;;;17.70;99.90;;;;;;4970717;28;20097;-82
2022/09/13 00:10:33;;;;;;;18.13;16.25;;;17.70;99.90;;;;;;4965566;28;20038;-82
2022/09/13 00:12:59;;;;;;;18.60;15.57;;;17.70;99.90;;;;;;4966542;28;20030;-82
2022/09/13 00:15:24;;;;;;;17.65;15.77;;;17.70;99.90;;;;;;4968288;28;20312;-82
2022/09/13 00:17:50;;;;;;;21.00;14.63;;;17.70;99.90;;;;;;4968077;28;20039;-82
2022/09/13 00:20:15;;;;;;;15.48;13.88;;;17.70;99.90;;;;;;4966806;28;20050;-83
2022/09/13 00:22:41;;;;;;;19.92;15.63;;;17.60;99.90;;;;;;4966551;28;20034;-83
2022/09/13 00:25:07;;;;;;;17.48;14.20;;;17.60;99.90;;;;;;4968799;28;20043;-83
2022/09/13 00:27:34;;;;;;;15.00;13.38;;;17.60;99.90;;;;;;4996836;28;20052;-83
2022/09/13 00:29:59;;;;;;;18.48;15.18;;;17.60;99.90;;;;;;4961303;28;20050;-83
2022/09/13 00:32:26;;;;;;;16.05;14.35;;;18.00;99.90;;;;;;4965487;28;20039;-83
2022/09/13 00:34:52;;;;;;;15.35;13.85;;;17.60;99.90;;;;;;4967978;28;20054;-83
2022/09/13 00:37:17;;;;;;;17.27;13.85;;;17.80;99.90;;;;;;4963643;28;20051;-83
2022/09/13 00:39:43;;;;;;;16.02;14.13;;;17.60;99.90;;;;;;4968378;28;20077;-83
2022/09/13 00:42:11;;;;;;;16.67;14.50;;;17.80;99.90;;;;;;4964283;28;20046;-82
2022/09/13 00:44:59;;;;;;;16.95;15.05;;;17.70;99.90;;;;;;4964323;28;20039;-83
2022/09/13 00:47:43;;;;;;;17.60;15.63;;;17.70;99.90;;;;;;4969651;28;20511;-83
2022/09/13 00:50:26;;;;;;;18.02;14.90;;;17.70;99.90;;;;;;4967484;28;20418;-83
2022/09/13 00:53:04;;;;;;;18.88;16.40;;;17.60;99.90;;;;;;4964262;28;20039;-83
2022/09/13 00:55:41;;;;;;;18.15;14.52;;;17.60;99.90;;;;;;4963441;28;20043;-83
2022/09/13 00:58:12;;;;;;;17.92;15.90;;;17.90;99.90;;;;;;4962465;28;20062;-83
2022/09/13 01:00:39;;;;;;;15.73;14.02;;;17.60;99.90;;;;;;4966695;28;20046;-82
2022/09/13 01:03:10;;;;;;;18.25;15.93;;;17.60;99.90;;;;;;4954349;28;20491;-83
2022/09/13 01:05:41;;;;;;;20.30;16.58;;;17.60;99.90;;;;;;4968184;28;20039;-83
2022/09/13 01:08:13;;;;;;;18.10;15.50;;;17.60;99.90;;;;;;4967058;28;20066;-83
2022/09/13 01:10:40;;;;;;;18.38;16.13;;;18.20;99.90;;;;;;4951189;28;20046;-83
2022/09/13 01:13:13;;;;;;;20.73;15.85;;;17.60;99.90;;;;;;4964905;28;20074;-82
2022/09/13 01:15:40;;;;;;;17.50;15.68;;;17.90;99.90;;;;;;4965831;28;20047;-82
2022/09/13 01:18:07;;;;;;;18.35;16.45;;;17.60;99.90;;;;;;4966540;28;20058;-82
2022/09/13 01:21:18;;;;;;;19.58;16.35;;;17.70;99.90;;;;;;4953704;28;20057;-82
2022/09/13 01:23:46;;;;;;;17.42;15.63;;;17.60;99.90;;;;;;4983497;28;20133;-82
2022/09/13 01:26:43;;;;;;;20.63;16.65;;;17.70;99.90;;;;;;4967371;28;20046;-82
2022/09/13 01:29:17;;;;;;;;;;;17.70;99.90;;;;;;4966601;28;20069;-82
2022/09/13 01:32:10;;;;;;;19.90;17.80;;;17.70;99.90;;;;;;4966656;28;19925;-82
2022/09/13 01:34:38;;;;;;;19.25;16.95;;;17.60;99.90;;;;;;4995868;28;20158;-82
2022/09/13 01:37:22;;;;;;;18.35;15.85;;;17.60;99.90;;;;;;4993475;28;20054;-82
2022/09/13 01:40:24;;;;;;;19.17;16.85;;;17.60;99.90;;;;;;4967418;28;20101;-82
2022/09/13 01:43:09;;;;;;;20.92;17.08;;;17.60;99.90;;;;;;4966981;28;20051;-82
2022/09/13 01:46:08;;;;;;;25.08;19.70;;;17.70;99.90;;;;;;4993464;28;20055;-82
2022/09/13 01:49:01;;;;;;;20.77;17.65;;;17.60;99.90;;;;;;4952102;28;20510;-82
2022/09/13 01:51:50;;;;;;;27.15;20.42;;;17.60;99.90;;;;;;4964744;28;20091;-83
2022/09/13 01:54:34;;;;;;;24.63;20.30;;;17.60;99.90;;;;;;4957948;28;20066;-83
2022/09/13 01:57:18;;;;;;;22.90;19.98;;;17.60;99.90;;;;;;4965904;28;20074;-83
2022/09/13 02:00:00;;;;;;;22.25;18.80;;;17.60;99.90;;;;;;4992833;28;20047;-83
2022/09/13 02:02:35;;;;;;;24.17;21.65;;;17.60;99.90;;;;;;4963932;28;20038;-82
2022/09/13 02:05:17;;;;;;;24.27;21.00;;;17.60;99.90;;;;;;4965728;28;20039;-82
2022/09/13 02:07:58;;;;;;;26.65;22.33;;;17.60;99.90;;;;;;4965274;28;20053;-82
2022/09/13 02:10:32;;;;;;;29.38;23.55;;;17.60;99.90;;;;;;4964604;28;20043;-82
2022/09/13 02:12:58;;;;;;;25.30;20.48;;;17.50;99.90;;;;;;4967383;28;20150;-82
2022/09/13 02:15:38;;;;;;;26.63;22.13;;;17.50;99.90;;;;;;4966216;28;20042;-82
2022/09/13 02:18:12;;;;;;;24.80;21.85;;;17.50;99.90;;;;;;4963626;28;20537;-82
2022/09/13 02:20:43;;;;;;;24.20;21.25;;;17.60;99.90;;;;;;4960324;28;20137;-83
2022/09/13 02:23:22;;;;;;;24.90;20.92;;;17.50;99.90;;;;;;4962237;28;20074;-83
2022/09/13 02:25:49;;;;;;;24.65;21.75;;;17.60;99.90;;;;;;4994339;28;20054;-82
2022/09/13 02:28:21;;;;;;;29.05;22.70;;;17.50;99.90;;;;;;4966113;28;20043;-82
2022/09/13 02:30:52;;;;;;;28.40;23.40;;;17.50;99.90;;;;;;4963799;28;20399;-82
2022/09/13 02:33:29;;;;;;;29.25;23.55;;;17.70;99.90;;;;;;4996184;28;20143;-82
2022/09/13 02:35:59;;;;;;;26.52;23.10;;;17.50;99.90;;;;;;4966564;28;20387;-82
2022/09/13 02:38:28;;;;;;;31.95;24.75;;;17.60;99.90;;;;;;4968001;28;20157;-82
2022/09/13 02:41:20;;;;;;;25.80;22.25;;;17.50;99.90;;;;;;4965560;28;20046;-82
2022/09/13 02:43:50;;;;;;;27.48;22.92;;;17.50;99.90;;;;;;4970961;28;20043;-82
2022/09/13 02:46:40;;;;;;;26.60;21.95;;;17.60;99.90;;;;;;4966473;28;20026;-82
2022/09/13 02:49:32;;;;;;;25.25;22.05;;;17.50;99.90;;;;;;4969974;28;20112;-82
2022/09/13 02:52:27;;;;;;;35.58;25.10;;;17.50;99.90;;;;;;4948761;28;20518;-82
2022/09/13 02:55:16;;;;;;;24.35;20.48;;;17.50;99.90;;;;;;4994585;28;20058;-83
2022/09/13 02:58:08;;;;;;;24.02;20.10;;;17.50;99.90;;;;;;4963451;28;20050;-83
2022/09/13 03:00:34;;;;;;;20.63;18.42;;;17.50;99.90;;;;;;4968113;28;20089;-82
2022/09/13 03:03:05;;;;;;;25.10;20.10;;;17.80;99.90;;;;;;4959742;28;20046;-82
2022/09/13 03:05:31;;;;;;;23.70;19.63;;;17.50;99.90;;;;;;4966107;28;20035;-82
2022/09/13 03:07:57;;;;;;;21.83;19.45;;;17.60;99.90;;;;;;4967288;28;20097;-82
2022/09/13 03:10:27;;;;;;;22.40;18.35;;;17.60;99.90;;;;;;4980924;28;20448;-82
2022/09/13 03:13:10;;;;;;;28.67;17.98;;;17.60;99.90;;;;;;4967732;28;20592;-82
2022/09/13 03:16:03;;;;;;;24.85;17.70;;;17.60;99.90;;;;;;4950121;28;20054;-82
2022/09/13 03:18:47;;;;;;;21.73;17.55;;;17.60;99.90;;;;;;4961654;28;20047;-82
2022/09/13 03:21:53;;;;;;;20.48;16.35;;;17.60;99.90;;;;;;4966359;28;20131;-83
2022/09/13 03:24:29;;;;;;;18.60;15.98;;;17.60;99.90;;;;;;4968327;28;20169;-82
2022/09/13 03:27:39;;;;;;;19.63;16.02;;;17.90;99.90;;;;;;4985922;28;20745;-83
2022/09/13 03:30:11;;;;;;;20.42;15.48;;;17.60;99.90;;;;;;4946809;28;20070;-83
2022/09/13 03:32:59;;;;;;;21.52;15.43;;;17.90;99.90;;;;;;4968622;28;20090;-82
2022/09/13 03:35:58;;;;;;;17.45;14.52;;;17.60;99.90;;;;;;4965727;28;20056;-83
2022/09/13 03:38:41;;;;;;;16.33;13.00;;;17.60;99.90;;;;;;4964994;28;20074;-83
2022/09/13 03:41:09;;;;;;;15.77;13.98;;;17.70;99.90;;;;;;4968463;28;20133;-83
2022/09/13 03:43:54;;;;;;;17.65;13.45;;;17.70;99.90;;;;;;4962859;28;20078;-82
2022/09/13 03:46:32;;;;;;;13.75;12.10;;;17.70;99.90;;;;;;4968786;28;20042;-82
2022/09/13 03:49:05;;;;;;;16.45;12.45;;;17.60;99.90;;;;;;4972674;28;20419;-82
2022/09/13 03:51:32;;;;;;;13.20;11.85;;;17.70;99.90;;;;;;4965271;28;20043;-82
2022/09/13 03:54:02;;;;;;;14.32;12.65;;;17.60;99.90;;;;;;4965053;28;20944;-83
2022/09/13 03:56:27;;;;;;;15.95;12.38;;;17.80;99.90;;;;;;4966567;28;20047;-83
2022/09/13 03:58:53;;;;;;;18.10;12.07;;;17.70;99.90;;;;;;4953824;28;20094;-82
2022/09/13 04:01:21;;;;;;;17.77;12.82;;;17.70;99.90;;;;;;4965592;28;20038;-82
2022/09/13 04:03:47;;;;;;;17.48;11.40;;;17.70;99.90;;;;;;4967931;28;20039;-82
2022/09/13 04:06:12;;;;;;;13.05;10.95;;;17.80;99.90;;;;;;4971949;28;20062;-82
2022/09/13 04:08:38;;;;;;;16.85;12.90;;;17.90;99.90;;;;;;4971807;28;20121;-81
2022/09/13 04:11:04;;;;;;;15.90;11.68;;;17.70;99.90;;;;;;4974746;28;20122;-82
2022/09/13 04:13:30;;;;;;;12.38;11.15;;;17.70;99.90;;;;;;4971440;28;20062;-82
2022/09/13 04:16:09;;;;;;;13.68;12.27;;;17.70;99.90;;;;;;4965386;28;20047;-82
2022/09/13 04:18:35;;;;;;;14.45;9.95;;;18.10;99.90;;;;;;4956567;28;20058;-83
2022/09/13 04:21:45;;;;;;;12.45;11.15;;;17.80;99.90;;;;;;4969285;28;20415;-84
2022/09/13 04:28:20;;;;;;;12.63;11.20;;;17.80;99.90;;;;;;4969831;28;20038;-83
2022/09/13 04:30:48;;;;;;;12.43;10.80;;;17.80;99.90;;;;;;4951355;28;20129;-83
2022/09/13 04:33:51;;;;;;;11.80;10.60;;;17.90;99.90;;;;;;4937504;28;20499;-84
2022/09/13 04:36:35;;;;;;;13.60;11.15;;;17.80;99.90;;;;;;4950544;28;20415;-83
2022/09/13 04:43:29;;;;;;;16.05;9.15;;;17.80;99.90;;;;;;4868999;29;20089;-84
2022/09/13 04:47:15;;;;;;;9.90;8.80;;;17.80;99.90;;;;;;4899188;28;20228;-83
2022/09/13 04:50:27;;;;;;;11.57;10.25;;;18.10;99.90;;;;;;4942498;28;20104;-88
2022/09/13 04:54:15;;;;;;;9.57;8.48;;;17.90;99.90;;;;;;4952952;28;20136;-83
2022/09/13 04:57:48;;;;;;;11.85;8.85;;;17.90;99.90;;;;;;4952320;28;20039;-83
2022/09/13 05:07:38;;;;;;;10.25;9.10;;;17.90;99.90;;;;;;4957214;28;20086;-81
2022/09/13 05:10:05;;;;;;;9.73;8.63;;;18.10;99.90;;;;;;4905135;28;20056;-83
2022/09/13 05:12:37;;;;;;;9.02;8.18;;;17.90;99.90;;;;;;4918591;28;20055;-84
2022/09/13 05:15:32;;;;;;;10.00;8.68;;;17.90;99.90;;;;;;4939777;28;20046;-84
2022/09/13 05:26:09;;;;;;;9.43;8.02;;;17.90;99.90;;;;;;4878743;29;20127;-84
2022/09/13 05:29:11;;;;;;;8.43;7.07;;;17.90;99.90;;;;;;4868555;28;20060;-83
2022/09/13 05:31:46;;;;;;;9.48;7.95;;;17.90;99.90;;;;;;4937119;28;20636;-81
2022/09/13 05:34:56;;;;;;;8.57;6.78;;;17.90;99.90;;;;;;4929629;28;20145;-84
2022/09/13 05:37:26;;;;;;;6.82;6.18;;;18.20;99.90;;;;;;4960317;28;20085;-82
2022/09/13 05:39:56;;;;;;;7.10;5.50;;;17.90;99.90;;;;;;4959419;28;20089;-81
2022/09/13 05:42:22;;;;;;;6.93;6.15;;;17.90;99.90;;;;;;4962814;28;20051;-81
2022/09/13 05:44:47;;;;;;;10.13;5.55;;;17.90;99.90;;;;;;4954424;28;20435;-81
2022/09/13 05:47:45;;;;;;;7.80;5.07;;;17.90;99.90;;;;;;4931908;28;20615;-82
2022/09/13 05:51:19;;;;;;;5.03;4.18;;;17.90;99.90;;;;;;4963537;28;20050;-83
2022/09/13 05:54:43;;;;;;;5.88;3.95;;;17.90;99.90;;;;;;4976332;28;20046;-83
2022/09/13 06:09:15;;;;;;;3.78;1.95;;;17.80;99.90;;;;;;4882630;29;20096;-83
2022/09/13 06:16:32;;;;;;;5.63;2.15;;;17.80;99.90;;;;;;4850948;29;20055;-83
2022/09/13 06:20:10;;;;;;;5.10;1.50;;;17.70;99.90;;;;;;4843981;29;20072;-83
2022/09/13 06:23:00;;;;;;;4.93;2.10;;;17.70;99.90;;;;;;4883207;29;20059;-83
2022/09/13 06:26:12;;;;;;;4.40;1.42;;;17.70;99.90;;;;;;4922020;29;20047;-83
2022/09/13 06:28:40;;;;;;;8.57;2.17;;;17.70;99.90;;;;;;4907102;29;20818;-84
2022/09/13 06:31:10;;;;;;;3.92;1.85;;;17.70;99.90;;;;;;4896688;29;20118;-84
2022/09/13 06:33:39;;;;;;;7.50;1.52;;;17.70;99.90;;;;;;4952083;28;20105;-83
2022/09/13 06:36:18;;;;;;;5.40;1.17;;;17.70;99.90;;;;;;4931651;28;20035;-84
2022/09/13 06:38:50;;;;;;;3.35;1.20;;;17.60;99.90;;;;;;4962659;28;20098;-84
2022/09/13 06:41:38;;;;;;;5.30;1.27;;;17.70;99.90;;;;;;4960829;28;20093;-84
2022/09/13 06:44:26;;;;;;;3.72;1.10;;;17.60;99.90;;;;;;4946632;28;20138;-83
2022/09/13 06:47:50;;;;;;;4.00;1.05;;;17.60;99.90;;;;;;4963792;28;20519;-83
2022/09/13 06:51:33;;;;;;;2.33;0.77;;;17.70;99.90;;;;;;4959393;28;20089;-83
2022/09/13 07:09:11;;;;;;;6.68;1.63;;;17.80;99.90;;;;;;4959445;28;20057;-83
2022/09/13 07:11:40;;;;;;;3.25;0.82;;;17.80;99.90;;;;;;4942999;28;20129;-82
2022/09/13 07:14:34;;;;;;;6.40;1.15;;;17.90;99.90;;;;;;4926431;28;20049;-84
2022/09/13 07:17:11;;;;;;;2.55;0.80;;;17.90;99.90;;;;;;4949442;28;20043;-86
2022/09/13 07:23:46;;;;;;;3.50;0.90;;;18.10;99.90;;;;;;4963948;28;20038;-83
2022/09/13 07:31:15;;;;;;;2.72;0.88;;;18.40;99.90;;;;;;4920056;29;20187;-84
2022/09/13 07:37:14;;;;;;;8.05;1.15;;;19.30;99.90;;;;;;4914869;29;20159;-84
2022/09/13 07:55:09;;;;;;;6.28;1.10;;;19.60;99.90;;;;;;4949376;28;20515;-85
2022/09/13 09:07:14;;;;;;;2.53;0.30;;;21.90;99.90;;;;;;4858824;29;20188;-84
2022/09/13 09:57:54;;;;;;;3.10;0.80;;;24.00;99.90;;;;;;4965017;28;20046;-84
2022/09/13 10:23:58;;;;;;;3.45;0.93;;;24.10;99.90;;;;;;4892923;29;20183;-85
2022/09/13 11:11:58;;;;;;;2.25;0.43;;;24.20;99.90;;;;;;4932085;29;20057;-84
2022/09/13 11:19:21;;;;;;;5.65;0.98;;;24.50;99.90;;;;;;4932551;29;20640;-84
2022/09/13 12:07:52;;;;;;;5.07;0.50;;;24.10;99.90;;;;;;4825668;29;20068;-84
2022/09/13 12:12:06;;;;;;;7.00;1.00;;;23.90;99.90;;;;;;4818645;29;20153;-84
2022/09/13 12:15:54;;;;;;;4.82;0.60;;;23.80;99.90;;;;;;4767750;30;20107;-84
2022/09/13 12:26:34;;;;;;;3.67;0.52;;;23.50;99.90;;;;;;4767094;30;20119;-84
2022/09/13 12:30:17;;;;;;;4.30;0.50;;;23.50;99.90;;;;;;4718361;30;20087;-84
2022/09/13 12:34:00;;;;;;;4.05;0.55;;;23.70;99.90;;;;;;4789496;29;20061;-85
2022/09/13 12:41:24;;;;;;;4.75;0.98;;;23.40;99.90;;;;;;4819700;29;20182;-84
2022/09/13 13:10:58;;;;;;;7.10;0.85;;;23.60;99.90;;;;;;4963917;28;21038;-85
2022/09/13 13:14:45;;;;;;;4.18;1.10;;;23.70;99.90;;;;;;4911262;29;20095;-84
2022/09/13 13:29:40;;;;;;;3.55;0.95;;;23.50;99.90;;;;;;4874481;29;20463;-84
2022/09/13 13:48:27;;;;;;;9.18;1.13;;;23.80;99.90;;;;;;4820610;29;20052;-85
2022/09/13 13:52:28;;;;;;;4.28;0.68;;;23.60;99.90;;;;;;4781084;29;20051;-84
2022/09/13 13:59:45;;;;;;;7.90;1.40;;;23.30;99.90;;;;;;4823901;29;20133;-84
2022/09/13 14:03:06;;;;;;;6.18;0.47;;;23.20;99.90;;;;;;4836688;29;20052;-83
2022/09/13 14:28:45;;;;;;;6.18;1.30;;;22.50;99.90;;;;;;4949087;28;20046;-84
2022/09/13 14:40:21;;;;;;;4.97;0.82;;;22.40;99.90;;;;;;4922106;29;20151;-83
2022/09/13 14:51:43;;;;;;;2.60;0.60;;;22.10;99.90;;;;;;4927788;28;19920;-84
2022/09/13 14:55:26;;;;;;;7.53;1.02;;;22.00;99.90;;;;;;4809670;29;20082;-84
2022/09/13 14:59:32;;;;;;;5.18;1.08;;;21.80;99.90;;;;;;4827629;29;20076;-84
2022/09/13 15:02:30;;;;;;;9.43;1.63;;;21.90;99.90;;;;;;4815312;29;20104;-84
2022/09/13 15:06:00;;;;;;;3.60;0.55;;;21.90;99.90;;;;;;4823497;29;20058;-84
2022/09/13 15:10:12;;;;;;;6.65;0.95;;;21.80;99.90;;;;;;4822405;29;20558;-84
2022/09/13 15:24:38;;;;;;;6.93;0.70;;;21.30;99.90;;;;;;4826755;29;20069;-84
2022/09/13 15:27:56;;;;;;;6.45;1.35;;;21.20;99.90;;;;;;4806448;29;20209;-83
2022/09/13 15:35:07;;;;;;;8.88;2.05;;;21.10;99.90;;;;;;4780321;29;20078;-84
2022/09/13 15:39:04;;;;;;;2.50;0.60;;;21.00;99.90;;;;;;4780938;30;20581;-84
2022/09/13 15:42:32;;;;;;;7.07;1.05;;;21.00;99.90;;;;;;4796996;29;20053;-84
2022/09/13 15:45:22;;;;;;;9.02;1.13;;;20.80;99.90;;;;;;4776312;29;20062;-86
2022/09/13 15:48:33;;;;;;;8.32;1.42;;;20.80;99.90;;;;;;4780760;29;20042;-86
2022/09/13 15:54:50;;;;;;;7.88;1.05;;;20.60;99.90;;;;;;4768171;29;20054;-85
2022/09/13 15:57:39;;;;;;;3.20;0.57;;;20.60;99.90;;;;;;4741029;30;20044;-84
2022/09/13 16:00:09;;;;;;;4.82;0.60;;;20.50;99.90;;;;;;4836362;28;20062;-84
2022/09/13 16:02:34;;;;;;;3.90;0.52;;;20.50;99.90;;;;;;4967156;28;20050;-84
2022/09/13 16:05:00;;;;;;;6.45;0.80;;;20.50;99.90;;;;;;4966260;28;20058;-84
2022/09/13 16:07:28;;;;;;;5.93;1.20;;;20.50;99.90;;;;;;4969855;28;20057;-84
2022/09/13 16:09:53;;;;;;;6.00;1.15;;;20.50;99.90;;;;;;4952308;28;20043;-83
2022/09/13 16:12:23;;;;;;;4.75;1.05;;;20.40;99.90;;;;;;4953560;28;20039;-84
2022/09/13 16:14:48;;;;;;;5.75;0.73;;;20.60;99.90;;;;;;4970256;28;20081;-84
2022/09/13 16:17:21;;;;;;;4.43;1.15;;;20.30;99.90;;;;;;4968179;28;20085;-84
2022/09/13 16:19:47;;;;;;;8.57;0.95;;;20.80;99.90;;;;;;4967003;28;20046;-84
2022/09/13 16:22:12;;;;;;;5.53;1.00;;;20.10;99.90;;;;;;4962240;28;20412;-83
2022/09/13 16:24:38;;;;;;;5.15;1.05;;;20.10;99.90;;;;;;4959613;28;20058;-82
2022/09/13 16:27:04;;;;;;;7.18;1.02;;;20.00;99.90;;;;;;4960139;28;20042;-83
2022/09/13 16:29:30;;;;;;;6.05;0.73;;;19.90;99.90;;;;;;4949131;28;20497;-82
2022/09/13 16:32:31;;;;;;;5.63;0.60;;;19.80;99.90;;;;;;4962777;28;20118;-85
2022/09/13 16:39:51;;;;;;;8.95;0.93;;;19.50;99.90;;;;;;4966921;28;20057;-84
2022/09/13 16:43:16;;;;;;;7.85;1.10;;;19.40;99.90;;;;;;4909406;29;20047;-84
2022/09/13 16:45:50;;;;;;;7.53;1.35;;;19.40;99.90;;;;;;4895313;29;20056;-85
2022/09/13 16:48:52;;;;;;;5.70;0.85;;;19.20;99.90;;;;;;4899705;29;20095;-84
2022/09/13 16:51:44;;;;;;;6.53;1.42;;;19.20;99.90;;;;;;4863454;29;20084;-84
2022/09/13 16:57:30;;;;;;;5.95;0.70;;;19.10;99.90;;;;;;5001025;28;20073;-84
2022/09/13 17:00:51;;;;;;;5.03;0.57;;;18.90;99.90;;;;;;4993395;28;20104;-85
2022/09/13 17:04:46;;;;;;;8.18;0.90;;;18.80;99.90;;;;;;4967228;28;20598;-83
2022/09/13 17:08:43;;;;;;;5.85;0.70;;;18.80;99.90;;;;;;4970616;28;20049;-84
2022/09/13 17:12:46;;;;;;;6.78;0.70;;;18.70;99.90;;;;;;4982306;28;20045;-84
2022/09/13 17:15:57;;;;;;;8.20;0.90;;;18.60;99.90;;;;;;4946774;28;20046;-84
2022/09/13 17:18:43;;;;;;;9.38;1.15;;;18.50;99.90;;;;;;4952549;28;20268;-84
2022/09/13 17:21:32;;;;;;;6.55;0.55;;;18.40;99.90;;;;;;4930354;28;20467;-84
2022/09/13 17:24:04;;;;;;;10.05;2.33;;;18.30;99.90;;;;;;4958478;28;20054;-83
2022/09/13 17:27:12;;;;;;;6.00;1.10;;;18.30;99.90;;;;;;4970993;28;20780;-84
2022/09/13 17:29:53;;;;;;;6.03;1.15;;;18.30;99.90;;;;;;4956216;28;20574;-85
2022/09/13 17:32:38;;;;;;;5.47;0.70;;;18.20;99.90;;;;;;4956585;28;20093;-84
2022/09/13 17:35:38;;;;;;;4.68;0.52;;;18.30;99.90;;;;;;4957166;28;20113;-85
2022/09/13 17:38:06;;;;;;;7.30;1.23;;;18.10;99.90;;;;;;4968329;28;20035;-83
2022/09/13 17:40:45;;;;;;;4.53;0.60;;;18.10;99.90;;;;;;4965954;28;20043;-85
2022/09/13 17:43:17;;;;;;;9.02;0.88;;;18.10;99.90;;;;;;4955057;28;20042;-84
2022/09/13 17:46:10;;;;;;;2.83;0.40;;;17.90;99.90;;;;;;4970230;28;20460;-84
2022/09/13 17:49:00;;;;;;;4.50;0.60;;;17.80;99.90;;;;;;4921204;28;20057;-84
2022/09/13 17:51:34;;;;;;;2.28;0.50;;;17.70;99.90;;;;;;4956427;28;20034;-84
2022/09/13 17:54:15;;;;;;;7.63;0.70;;;17.60;99.90;;;;;;4960788;28;20447;-83
2022/09/13 17:56:50;;;;;;;6.25;0.75;;;17.60;99.90;;;;;;4965758;28;20039;-85
2022/09/13 17:59:27;;;;;;;3.85;0.75;;;17.50;99.90;;;;;;4967299;28;20156;-84
2022/09/13 18:02:03;;;;;;;3.67;0.75;;;17.30;99.90;;;;;;4962118;28;20483;-84
2022/09/13 18:04:29;;;;;;;4.70;0.70;;;17.20;99.90;;;;;;4953868;28;20035;-83
2022/09/13 18:06:55;;;;;;;3.67;0.60;;;17.20;99.90;;;;;;4957927;28;20050;-83
2022/09/13 18:09:20;;;;;;;4.28;0.38;;;17.00;99.90;;;;;;4964126;28;20053;-82
2022/09/13 18:11:50;;;;;;;10.68;0.80;;;16.90;99.90;;;;;;4976284;28;20035;-84
2022/09/13 18:14:17;;;;;;;2.95;0.50;;;16.80;99.90;;;;;;4949436;28;20063;-81
2022/09/13 18:17:12;;;;;;;4.40;0.50;;;16.70;99.90;;;;;;4962623;28;20027;-84
2022/09/13 18:20:30;;;;;;;3.38;0.47;;;16.70;99.90;;;;;;4965321;28;20054;-84
2022/09/13 18:24:15;;;;;;;9.07;1.13;;;16.50;99.90;;;;;;4899894;29;20055;-84
2022/09/13 18:26:44;;;;;;;5.03;0.90;;;16.50;99.90;;;;;;4928146;28;20050;-84
2022/09/13 18:29:13;;;;;;;2.55;0.40;;;16.50;99.90;;;;;;4950930;28;20391;-84
2022/09/13 18:31:44;;;;;;;3.72;0.50;;;16.30;99.90;;;;;;4968711;28;20046;-84
2022/09/13 18:34:28;;;;;;;7.22;1.08;;;16.20;99.90;;;;;;4953383;28;20419;-84
2022/09/13 18:36:54;;;;;;;5.80;0.70;;;16.10;99.90;;;;;;4953433;28;20046;-85
2022/09/13 18:39:21;;;;;;;4.82;1.98;;;16.10;99.90;;;;;;4954929;28;20080;-84
2022/09/13 18:41:47;;;;;;;7.32;1.55;;;16.10;99.90;;;;;;4963367;28;20560;-85
2022/09/13 18:44:14;;;;;;;5.07;1.58;;;16.00;99.90;;;;;;4960666;28;20034;-84
2022/09/13 18:46:41;;;;;;;4.25;0.85;;;16.00;99.90;;;;;;4960086;28;20081;-83
2022/09/13 18:49:08;;;;;;;3.25;0.50;;;16.00;99.90;;;;;;4962162;28;20082;-83
2022/09/13 18:51:39;;;;;;;12.70;1.45;;;16.00;99.90;;;;;;4963818;28;20035;-83
2022/09/13 18:54:07;;;;;;;5.25;0.52;;;16.00;99.90;;;;;;4962219;28;20058;-83
2022/09/13 18:56:33;;;;;;;7.15;0.80;;;16.00;99.90;;;;;;4962320;28;20102;-83
2022/09/13 18:59:01;;;;;;;3.10;0.43;;;16.00;99.90;;;;;;4960685;28;20571;-83
2022/09/13 19:01:32;;;;;;;6.40;0.50;;;15.90;99.90;;;;;;4989380;28;20475;-83
2022/09/13 19:04:01;;;;;;;5.63;0.80;;;16.10;99.90;;;;;;4942381;28;20142;-83
2022/09/13 19:06:36;;;;;;;4.53;0.80;;;15.80;99.90;;;;;;4959624;28;20047;-83
2022/09/13 19:09:04;;;;;;;6.53;0.43;;;15.80;99.90;;;;;;4962928;28;20117;-83
2022/09/13 19:11:38;;;;;;;6.15;1.00;;;15.70;99.90;;;;;;4961380;28;20067;-83
2022/09/13 19:14:04;;;;;;;6.43;1.10;;;15.70;99.90;;;;;;4946068;28;20085;-83
2022/09/13 19:16:33;;;;;;;7.55;0.55;;;15.70;99.90;;;;;;4962779;28;20053;-82
2022/09/13 19:18:59;;;;;;;7.05;0.90;;;15.60;99.90;;;;;;4961993;28;20107;-83
2022/09/13 19:21:29;;;;;;;4.00;0.88;;;15.50;99.90;;;;;;4993738;28;20078;-83
2022/09/13 19:23:56;;;;;;;8.10;0.80;;;15.40;99.90;;;;;;4963762;28;20039;-83
2022/09/13 19:26:25;;;;;;;4.18;0.70;;;15.30;99.90;;;;;;4961251;28;20054;-83
2022/09/13 19:29:06;;;;;;;5.82;0.85;;;15.30;99.90;;;;;;4967139;28;20131;-83
2022/09/13 19:31:34;;;;;;;4.22;0.55;;;15.20;99.90;;;;;;4962046;28;20063;-83
2022/09/13 19:34:01;;;;;;;7.57;0.80;;;15.10;99.90;;;;;;4959481;28;20050;-83
2022/09/13 19:36:28;;;;;;;4.20;0.55;;;14.90;99.90;;;;;;4963967;28;20574;-83
2022/09/13 19:38:56;;;;;;;4.22;0.60;;;14.80;99.90;;;;;;4959713;28;20031;-83
2022/09/13 19:41:25;;;;;;;6.43;0.43;;;14.80;99.90;;;;;;4961073;28;20114;-83
2022/09/13 19:43:54;;;;;;;7.38;1.10;;;14.80;99.90;;;;;;4960431;28;20054;-83
2022/09/13 19:46:23;;;;;;;6.30;0.63;;;14.70;99.90;;;;;;4963142;28;20050;-82
2022/09/13 19:48:59;;;;;;;4.45;0.40;;;14.70;99.90;;;;;;4947402;28;20492;-82
2022/09/13 19:51:27;;;;;;;11.30;0.80;;;14.80;99.90;;;;;;4950170;28;20419;-83
2022/09/13 19:53:54;;;;;;;4.05;0.70;;;14.90;99.90;;;;;;4965059;28;20046;-82
2022/09/13 19:56:22;;;;;;;2.42;0.73;;;14.70;99.90;;;;;;4964878;28;20058;-82
2022/09/13 19:58:49;;;;;;;4.43;0.88;;;14.80;99.90;;;;;;4961120;28;20039;-83
2022/09/13 20:01:20;;;;;;;5.30;0.88;;;14.70;99.90;;;;;;4966338;28;20042;-81
2022/09/13 20:03:51;;;;;;;6.70;0.55;;;14.70;99.90;;;;;;4964961;28;20050;-81
2022/09/13 20:06:17;;;;;;;3.22;0.30;;;14.70;99.90;;;;;;4997277;28;20043;-81
2022/09/13 20:08:42;;;;;;;4.43;0.93;;;14.70;99.90;;;;;;4963111;28;20058;-81
2022/09/13 20:11:11;;;;;;;1.77;0.50;;;14.70;99.90;;;;;;4976759;28;20383;-81
2022/09/13 20:13:38;;;;;;;1.98;0.40;;;14.70;99.90;;;;;;4961320;28;20043;-81
2022/09/13 20:16:18;;;;;;;4.40;0.30;;;14.60;99.90;;;;;;4959407;28;20043;-81
2022/09/13 20:18:44;;;;;;;3.97;0.50;;;14.60;99.90;;;;;;4959895;28;20039;-81
2022/09/13 20:21:09;;;;;;;5.65;0.40;;;14.50;99.90;;;;;;4960414;28;20407;-81
2022/09/13 20:23:37;;;;;;;3.53;0.40;;;14.40;99.90;;;;;;4959327;28;20051;-81
2022/09/13 20:26:11;;;;;;;6.18;0.63;;;14.30;99.90;;;;;;4946758;28;20087;-82
2022/09/13 20:28:37;;;;;;;5.78;0.50;;;14.20;99.90;;;;;;4961189;28;20039;-81
2022/09/13 20:31:02;;;;;;;3.42;0.38;;;14.10;99.90;;;;;;4949992;28;20039;-82
2022/09/13 20:33:28;;;;;;;6.75;0.80;;;14.10;99.90;;;;;;4960222;28;20039;-82
2022/09/13 20:35:54;;;;;;;5.88;0.40;;;14.10;99.90;;;;;;4960965;28;20031;-82
2022/09/13 20:38:19;;;;;;;5.15;1.20;;;14.10;99.90;;;;;;4972763;28;20049;-81
2022/09/13 20:40:45;;;;;;;1.98;0.32;;;14.10;99.90;;;;;;4973667;28;20086;-82
2022/09/13 20:43:13;;;;;;;6.25;0.88;;;14.10;99.90;;;;;;4964264;28;20102;-82
2022/09/13 20:45:39;;;;;;;4.28;0.85;;;14.10;99.90;;;;;;4958331;28;20467;-82
2022/09/13 20:48:06;;;;;;;6.30;1.23;;;14.10;99.90;;;;;;4964275;28;20098;-82
2022/09/13 20:50:32;;;;;;;2.63;0.50;;;13.90;99.90;;;;;;4953861;28;20038;-81
2022/09/13 20:52:59;;;;;;;4.60;0.70;;;14.10;99.90;;;;;;4956056;28;20039;-81
2022/09/13 20:55:25;;;;;;;4.55;0.77;;;14.10;99.90;;;;;;4951980;28;20411;-81
2022/09/13 20:57:50;;;;;;;4.28;0.65;;;14.10;99.90;;;;;;4983092;28;20406;-81
2022/09/13 21:00:16;;;;;;;5.65;0.40;;;14.00;99.90;;;;;;4960598;28;20054;-81
2022/09/13 21:02:42;;;;;;;6.72;1.00;;;13.90;99.90;;;;;;4949928;28;20047;-81
2022/09/13 21:05:08;;;;;;;4.70;0.50;;;13.80;99.90;;;;;;4961891;28;20501;-81
2022/09/13 21:10:18;;;;;;;4.45;0.77;;;13.80;99.90;;;;;;4963209;28;20058;-82
2022/09/13 21:12:48;;;;;;;6.63;0.90;;;13.80;99.90;;;;;;4949810;28;20047;-82
2022/09/13 21:15:13;;;;;;;12.93;0.82;;;13.70;99.90;;;;;;4961173;28;20046;-81
2022/09/13 21:17:39;;;;;;;5.10;1.10;;;13.80;99.90;;;;;;4964046;28;20053;-81
2022/09/13 21:20:05;;;;;;;5.60;0.95;;;13.80;99.90;;;;;;4963624;28;20157;-82
2022/09/13 21:22:31;;;;;;;4.63;0.80;;;13.70;99.90;;;;;;4951975;28;20031;-81
2022/09/13 21:24:57;;;;;;;4.00;0.60;;;13.70;99.90;;;;;;4960792;28;20058;-81
2022/09/13 21:27:23;;;;;;;5.25;0.90;;;13.80;99.90;;;;;;4956170;28;20050;-82
2022/09/13 21:29:48;;;;;;;6.65;1.45;;;13.80;99.90;;;;;;4960207;28;20042;-81
2022/09/13 21:32:16;;;;;;;7.93;1.33;;;13.80;99.90;;;;;;4947028;28;20093;-81
2022/09/13 21:34:42;;;;;;;4.53;0.70;;;13.80;99.90;;;;;;4961130;28;20047;-82
2022/09/13 21:37:08;;;;;;;5.82;0.50;;;13.70;99.90;;;;;;4969724;28;20496;-81